sensor_id;sensor_type;location;lat;lon;timestamp;P1;durP1;ratioP1;P2;durP2;ratioP2
54823;SDS011;40724;53.196;5.980;2024-02-26T00:01:54;10.18;;;6.53;;
54823;SDS011;40724;53.196;5.980;2024-02-26T00:04:20;8.27;;;5.47;;
54823;SDS011;40724;53.196;5.980;2024-02-26T00:06:47;8.35;;;5.80;;
54823;SDS011;40724;53.196;5.980;2024-02-26T00:09:15;9.32;;;5.72;;
54823;SDS011;40724;53.196;5.980;2024-02-26T00:11:41;7.28;;;4.75;;
54823;SDS011;40724;53.196;5.980;2024-02-26T00:14:08;8.38;;;5.55;;
54823;SDS011;40724;53.196;5.980;2024-02-26T00:16:33;8.48;;;6.18;;
54823;SDS011;40724;53.196;5.980;2024-02-26T00:18:59;9.25;;;6.07;;
54823;SDS011;40724;53.196;5.980;2024-02-26T00:21:25;8.60;;;5.40;;
54823;SDS011;40724;53.196;5.980;2024-02-26T00:23:52;7.57;;;5.55;;
54823;SDS011;40724;53.196;5.980;2024-02-26T00:26:18;6.95;;;4.57;;
54823;SDS011;40724;53.196;5.980;2024-02-26T00:28:45;8.73;;;5.05;;
54823;SDS011;40724;53.196;5.980;2024-02-26T00:31:11;8.68;;;5.38;;
54823;SDS011;40724;53.196;5.980;2024-02-26T00:33:37;8.70;;;5.22;;
54823;SDS011;40724;53.196;5.980;2024-02-26T00:36:03;9.02;;;5.18;;
54823;SDS011;40724;53.196;5.980;2024-02-26T00:38:29;6.43;;;4.82;;
54823;SDS011;40724;53.196;5.980;2024-02-26T00:40:56;7.00;;;5.03;;
54823;SDS011;40724;53.196;5.980;2024-02-26T00:43:22;8.57;;;5.32;;
54823;SDS011;40724;53.196;5.980;2024-02-26T00:45:48;6.82;;;4.68;;
54823;SDS011;40724;53.196;5.980;2024-02-26T00:48:14;6.30;;;4.18;;
54823;SDS011;40724;53.196;5.980;2024-02-26T00:50:40;7.57;;;4.38;;
54823;SDS011;40724;53.196;5.980;2024-02-26T00:53:07;6.10;;;3.83;;
54823;SDS011;40724;53.196;5.980;2024-02-26T00:55:33;6.13;;;4.13;;
54823;SDS011;40724;53.196;5.980;2024-02-26T00:57:59;6.18;;;4.20;;
54823;SDS011;40724;53.196;5.980;2024-02-26T01:00:26;6.00;;;4.43;;
54823;SDS011;40724;53.196;5.980;2024-02-26T01:02:52;6.32;;;3.47;;
54823;SDS011;40724;53.196;5.980;2024-02-26T01:05:18;5.22;;;3.40;;
54823;SDS011;40724;53.196;5.980;2024-02-26T01:07:44;5.65;;;3.85;;
54823;SDS011;40724;53.196;5.980;2024-02-26T01:10:10;4.93;;;3.58;;
54823;SDS011;40724;53.196;5.980;2024-02-26T01:12:36;5.75;;;3.67;;
54823;SDS011;40724;53.196;5.980;2024-02-26T01:15:03;7.85;;;4.60;;
54823;SDS011;40724;53.196;5.980;2024-02-26T01:17:29;4.50;;;3.58;;
54823;SDS011;40724;53.196;5.980;2024-02-26T01:19:55;5.22;;;3.53;;
54823;SDS011;40724;53.196;5.980;2024-02-26T01:22:21;5.85;;;4.00;;
54823;SDS011;40724;53.196;5.980;2024-02-26T01:24:48;4.82;;;3.17;;
54823;SDS011;40724;53.196;5.980;2024-02-26T01:27:14;5.55;;;3.92;;
54823;SDS011;40724;53.196;5.980;2024-02-26T01:29:41;3.70;;;2.65;;
54823;SDS011;40724;53.196;5.980;2024-02-26T01:32:07;3.88;;;2.92;;
54823;SDS011;40724;53.196;5.980;2024-02-26T01:34:33;5.65;;;3.20;;
54823;SDS011;40724;53.196;5.980;2024-02-26T01:36:59;4.15;;;3.75;;
54823;SDS011;40724;53.196;5.980;2024-02-26T01:39:26;4.90;;;3.10;;
54823;SDS011;40724;53.196;5.980;2024-02-26T01:41:54;5.70;;;3.13;;
54823;SDS011;40724;53.196;5.980;2024-02-26T01:44:21;4.00;;;2.47;;
54823;SDS011;40724;53.196;5.980;2024-02-26T01:46:48;5.25;;;3.38;;
54823;SDS011;40724;53.196;5.980;2024-02-26T01:49:14;5.88;;;3.30;;
54823;SDS011;40724;53.196;5.980;2024-02-26T01:51:41;4.03;;;3.13;;
54823;SDS011;40724;53.196;5.980;2024-02-26T01:54:08;5.88;;;3.42;;
54823;SDS011;40724;53.196;5.980;2024-02-26T01:56:35;8.30;;;3.83;;
54823;SDS011;40724;53.196;5.980;2024-02-26T01:59:01;5.20;;;3.42;;
54823;SDS011;40724;53.196;5.980;2024-02-26T02:01:29;4.65;;;3.47;;
54823;SDS011;40724;53.196;5.980;2024-02-26T02:03:59;4.38;;;2.63;;
54823;SDS011;40724;53.196;5.980;2024-02-26T02:06:25;4.38;;;2.92;;
54823;SDS011;40724;53.196;5.980;2024-02-26T02:08:54;4.68;;;3.20;;
54823;SDS011;40724;53.196;5.980;2024-02-26T02:11:20;3.53;;;2.60;;
54823;SDS011;40724;53.196;5.980;2024-02-26T02:13:46;3.92;;;2.85;;
54823;SDS011;40724;53.196;5.980;2024-02-26T02:16:12;4.88;;;3.08;;
54823;SDS011;40724;53.196;5.980;2024-02-26T02:18:39;4.10;;;2.65;;
54823;SDS011;40724;53.196;5.980;2024-02-26T02:21:05;5.35;;;3.17;;
54823;SDS011;40724;53.196;5.980;2024-02-26T02:23:31;3.72;;;2.42;;
54823;SDS011;40724;53.196;5.980;2024-02-26T02:25:57;3.22;;;2.22;;
54823;SDS011;40724;53.196;5.980;2024-02-26T02:28:24;4.10;;;2.78;;
54823;SDS011;40724;53.196;5.980;2024-02-26T02:30:51;4.15;;;2.47;;
54823;SDS011;40724;53.196;5.980;2024-02-26T02:33:17;3.38;;;2.53;;
54823;SDS011;40724;53.196;5.980;2024-02-26T02:35:44;4.65;;;3.63;;
54823;SDS011;40724;53.196;5.980;2024-02-26T02:38:11;3.95;;;2.85;;
54823;SDS011;40724;53.196;5.980;2024-02-26T02:40:37;3.92;;;2.67;;
54823;SDS011;40724;53.196;5.980;2024-02-26T02:43:03;6.15;;;2.38;;
54823;SDS011;40724;53.196;5.980;2024-02-26T02:45:29;3.53;;;2.70;;
54823;SDS011;40724;53.196;5.980;2024-02-26T02:47:56;3.50;;;2.25;;
54823;SDS011;40724;53.196;5.980;2024-02-26T02:50:22;4.25;;;2.90;;
54823;SDS011;40724;53.196;5.980;2024-02-26T02:52:48;3.75;;;2.28;;
54823;SDS011;40724;53.196;5.980;2024-02-26T02:55:15;3.78;;;2.28;;
54823;SDS011;40724;53.196;5.980;2024-02-26T02:57:41;4.45;;;2.65;;
54823;SDS011;40724;53.196;5.980;2024-02-26T03:00:08;4.72;;;2.53;;
54823;SDS011;40724;53.196;5.980;2024-02-26T03:02:34;4.38;;;2.90;;
54823;SDS011;40724;53.196;5.980;2024-02-26T03:05:04;3.92;;;2.33;;
54823;SDS011;40724;53.196;5.980;2024-02-26T03:07:30;8.30;;;2.47;;
54823;SDS011;40724;53.196;5.980;2024-02-26T03:09:56;5.25;;;2.47;;
54823;SDS011;40724;53.196;5.980;2024-02-26T03:12:22;3.30;;;2.50;;
54823;SDS011;40724;53.196;5.980;2024-02-26T03:14:49;2.95;;;2.38;;
54823;SDS011;40724;53.196;5.980;2024-02-26T03:17:15;2.85;;;2.05;;
54823;SDS011;40724;53.196;5.980;2024-02-26T03:19:41;3.60;;;2.47;;
54823;SDS011;40724;53.196;5.980;2024-02-26T03:22:07;4.18;;;2.95;;
54823;SDS011;40724;53.196;5.980;2024-02-26T03:24:33;3.88;;;2.33;;
54823;SDS011;40724;53.196;5.980;2024-02-26T03:26:59;3.40;;;2.53;;
54823;SDS011;40724;53.196;5.980;2024-02-26T03:29:25;2.72;;;2.20;;
54823;SDS011;40724;53.196;5.980;2024-02-26T03:31:52;4.20;;;2.67;;
54823;SDS011;40724;53.196;5.980;2024-02-26T03:34:18;4.18;;;2.40;;
54823;SDS011;40724;53.196;5.980;2024-02-26T03:36:45;3.58;;;2.10;;
54823;SDS011;40724;53.196;5.980;2024-02-26T03:39:11;4.45;;;2.13;;
54823;SDS011;40724;53.196;5.980;2024-02-26T03:41:37;4.80;;;2.40;;
54823;SDS011;40724;53.196;5.980;2024-02-26T03:44:03;4.53;;;2.17;;
54823;SDS011;40724;53.196;5.980;2024-02-26T03:46:29;3.92;;;2.47;;
54823;SDS011;40724;53.196;5.980;2024-02-26T03:48:56;4.03;;;2.55;;
54823;SDS011;40724;53.196;5.980;2024-02-26T03:51:22;3.60;;;2.60;;
54823;SDS011;40724;53.196;5.980;2024-02-26T03:53:48;3.78;;;2.40;;
54823;SDS011;40724;53.196;5.980;2024-02-26T03:56:14;3.10;;;2.10;;
54823;SDS011;40724;53.196;5.980;2024-02-26T03:58:40;3.20;;;2.00;;
54823;SDS011;40724;53.196;5.980;2024-02-26T04:01:07;4.10;;;2.55;;
54823;SDS011;40724;53.196;5.980;2024-02-26T04:03:34;5.57;;;2.30;;
54823;SDS011;40724;53.196;5.980;2024-02-26T04:06:00;4.57;;;2.20;;
54823;SDS011;40724;53.196;5.980;2024-02-26T04:08:26;2.95;;;2.05;;
54823;SDS011;40724;53.196;5.980;2024-02-26T04:10:52;4.97;;;3.03;;
54823;SDS011;40724;53.196;5.980;2024-02-26T04:13:19;4.25;;;2.00;;
54823;SDS011;40724;53.196;5.980;2024-02-26T04:15:45;4.82;;;2.55;;
54823;SDS011;40724;53.196;5.980;2024-02-26T04:18:12;3.40;;;2.20;;
54823;SDS011;40724;53.196;5.980;2024-02-26T04:20:39;3.17;;;2.53;;
54823;SDS011;40724;53.196;5.980;2024-02-26T04:23:07;3.38;;;2.17;;
54823;SDS011;40724;53.196;5.980;2024-02-26T04:25:33;3.92;;;2.40;;
54823;SDS011;40724;53.196;5.980;2024-02-26T04:27:59;3.38;;;2.17;;
54823;SDS011;40724;53.196;5.980;2024-02-26T04:30:26;4.40;;;2.88;;
54823;SDS011;40724;53.196;5.980;2024-02-26T04:32:52;4.38;;;2.28;;
54823;SDS011;40724;53.196;5.980;2024-02-26T04:35:18;3.13;;;2.17;;
54823;SDS011;40724;53.196;5.980;2024-02-26T04:37:44;3.58;;;2.47;;
54823;SDS011;40724;53.196;5.980;2024-02-26T04:40:10;4.20;;;2.70;;
54823;SDS011;40724;53.196;5.980;2024-02-26T04:42:36;5.28;;;2.80;;
54823;SDS011;40724;53.196;5.980;2024-02-26T04:45:03;3.55;;;2.38;;
54823;SDS011;40724;53.196;5.980;2024-02-26T04:47:29;3.42;;;2.00;;
54823;SDS011;40724;53.196;5.980;2024-02-26T04:49:55;3.45;;;2.17;;
54823;SDS011;40724;53.196;5.980;2024-02-26T04:52:21;3.30;;;2.15;;
54823;SDS011;40724;53.196;5.980;2024-02-26T04:54:47;4.35;;;2.38;;
54823;SDS011;40724;53.196;5.980;2024-02-26T04:57:13;4.78;;;2.10;;
54823;SDS011;40724;53.196;5.980;2024-02-26T04:59:39;4.65;;;2.35;;
54823;SDS011;40724;53.196;5.980;2024-02-26T05:02:07;4.60;;;2.33;;
54823;SDS011;40724;53.196;5.980;2024-02-26T05:04:33;4.57;;;2.00;;
54823;SDS011;40724;53.196;5.980;2024-02-26T05:06:59;3.67;;;2.28;;
54823;SDS011;40724;53.196;5.980;2024-02-26T05:09:25;4.07;;;2.42;;
54823;SDS011;40724;53.196;5.980;2024-02-26T05:11:52;3.88;;;2.55;;
54823;SDS011;40724;53.196;5.980;2024-02-26T05:14:18;2.08;;;1.45;;
54823;SDS011;40724;53.196;5.980;2024-02-26T05:16:44;2.35;;;1.85;;
54823;SDS011;40724;53.196;5.980;2024-02-26T05:19:10;2.33;;;1.70;;
54823;SDS011;40724;53.196;5.980;2024-02-26T05:21:36;4.60;;;1.83;;
54823;SDS011;40724;53.196;5.980;2024-02-26T05:24:03;2.95;;;1.77;;
54823;SDS011;40724;53.196;5.980;2024-02-26T05:26:29;3.85;;;1.63;;
54823;SDS011;40724;53.196;5.980;2024-02-26T05:28:55;2.58;;;1.88;;
54823;SDS011;40724;53.196;5.980;2024-02-26T05:31:25;2.08;;;1.42;;
54823;SDS011;40724;53.196;5.980;2024-02-26T05:33:51;2.60;;;1.73;;
54823;SDS011;40724;53.196;5.980;2024-02-26T05:36:18;4.55;;;1.77;;
54823;SDS011;40724;53.196;5.980;2024-02-26T05:38:44;3.13;;;2.20;;
54823;SDS011;40724;53.196;5.980;2024-02-26T05:41:11;2.03;;;1.60;;
54823;SDS011;40724;53.196;5.980;2024-02-26T05:43:37;3.83;;;2.08;;
54823;SDS011;40724;53.196;5.980;2024-02-26T05:46:03;5.35;;;1.92;;
54823;SDS011;40724;53.196;5.980;2024-02-26T05:48:30;3.97;;;2.15;;
54823;SDS011;40724;53.196;5.980;2024-02-26T05:50:57;2.45;;;1.55;;
54823;SDS011;40724;53.196;5.980;2024-02-26T05:53:23;2.95;;;1.67;;
54823;SDS011;40724;53.196;5.980;2024-02-26T05:55:49;3.90;;;1.77;;
54823;SDS011;40724;53.196;5.980;2024-02-26T05:58:15;6.53;;;1.90;;
54823;SDS011;40724;53.196;5.980;2024-02-26T06:00:41;3.17;;;1.95;;
54823;SDS011;40724;53.196;5.980;2024-02-26T06:03:07;2.65;;;1.70;;
54823;SDS011;40724;53.196;5.980;2024-02-26T06:05:33;2.50;;;1.60;;
54823;SDS011;40724;53.196;5.980;2024-02-26T06:08:00;3.20;;;1.73;;
54823;SDS011;40724;53.196;5.980;2024-02-26T06:10:27;7.13;;;1.70;;
54823;SDS011;40724;53.196;5.980;2024-02-26T06:12:53;2.25;;;1.40;;
54823;SDS011;40724;53.196;5.980;2024-02-26T06:15:20;2.28;;;1.13;;
54823;SDS011;40724;53.196;5.980;2024-02-26T06:17:46;2.00;;;1.38;;
54823;SDS011;40724;53.196;5.980;2024-02-26T06:20:12;2.53;;;1.25;;
54823;SDS011;40724;53.196;5.980;2024-02-26T06:22:39;3.10;;;1.70;;
54823;SDS011;40724;53.196;5.980;2024-02-26T06:25:05;2.42;;;1.45;;
54823;SDS011;40724;53.196;5.980;2024-02-26T06:27:32;3.15;;;1.50;;
54823;SDS011;40724;53.196;5.980;2024-02-26T06:29:58;3.05;;;1.63;;
54823;SDS011;40724;53.196;5.980;2024-02-26T06:32:24;1.17;;;1.05;;
54823;SDS011;40724;53.196;5.980;2024-02-26T06:34:52;1.38;;;1.20;;
54823;SDS011;40724;53.196;5.980;2024-02-26T06:37:19;1.98;;;1.05;;
54823;SDS011;40724;53.196;5.980;2024-02-26T06:39:45;4.85;;;1.42;;
54823;SDS011;40724;53.196;5.980;2024-02-26T06:42:11;2.17;;;1.20;;
54823;SDS011;40724;53.196;5.980;2024-02-26T06:44:37;1.52;;;1.13;;
54823;SDS011;40724;53.196;5.980;2024-02-26T06:47:04;2.15;;;1.23;;
54823;SDS011;40724;53.196;5.980;2024-02-26T06:49:31;2.22;;;1.02;;
54823;SDS011;40724;53.196;5.980;2024-02-26T06:51:57;2.10;;;1.40;;
54823;SDS011;40724;53.196;5.980;2024-02-26T06:54:23;1.73;;;1.17;;
54823;SDS011;40724;53.196;5.980;2024-02-26T06:56:49;1.52;;;0.98;;
54823;SDS011;40724;53.196;5.980;2024-02-26T06:59:15;2.67;;;1.10;;
54823;SDS011;40724;53.196;5.980;2024-02-26T07:01:42;2.55;;;1.00;;
54823;SDS011;40724;53.196;5.980;2024-02-26T07:04:08;1.90;;;1.10;;
54823;SDS011;40724;53.196;5.980;2024-02-26T07:06:36;2.05;;;0.95;;
54823;SDS011;40724;53.196;5.980;2024-02-26T07:09:02;3.17;;;2.00;;
54823;SDS011;40724;53.196;5.980;2024-02-26T07:11:28;1.92;;;1.20;;
54823;SDS011;40724;53.196;5.980;2024-02-26T07:13:54;3.30;;;1.58;;
54823;SDS011;40724;53.196;5.980;2024-02-26T07:16:20;3.42;;;1.38;;
54823;SDS011;40724;53.196;5.980;2024-02-26T07:18:46;9.27;;;2.05;;
54823;SDS011;40724;53.196;5.980;2024-02-26T07:21:13;1.80;;;1.38;;
54823;SDS011;40724;53.196;5.980;2024-02-26T07:23:39;2.70;;;1.10;;
54823;SDS011;40724;53.196;5.980;2024-02-26T07:26:05;3.65;;;1.10;;
54823;SDS011;40724;53.196;5.980;2024-02-26T07:28:33;2.20;;;1.27;;
54823;SDS011;40724;53.196;5.980;2024-02-26T07:30:59;2.30;;;1.00;;
54823;SDS011;40724;53.196;5.980;2024-02-26T07:33:25;2.22;;;1.58;;
54823;SDS011;40724;53.196;5.980;2024-02-26T07:35:51;2.70;;;1.35;;
54823;SDS011;40724;53.196;5.980;2024-02-26T07:38:19;2.33;;;1.17;;
54823;SDS011;40724;53.196;5.980;2024-02-26T07:40:45;1.40;;;0.90;;
54823;SDS011;40724;53.196;5.980;2024-02-26T07:43:11;2.78;;;1.27;;
54823;SDS011;40724;53.196;5.980;2024-02-26T07:45:37;1.85;;;1.20;;
54823;SDS011;40724;53.196;5.980;2024-02-26T07:48:03;5.05;;;2.00;;
54823;SDS011;40724;53.196;5.980;2024-02-26T07:50:30;4.60;;;1.40;;
54823;SDS011;40724;53.196;5.980;2024-02-26T07:52:56;3.22;;;1.20;;
54823;SDS011;40724;53.196;5.980;2024-02-26T07:55:23;2.13;;;1.23;;
54823;SDS011;40724;53.196;5.980;2024-02-26T07:57:49;2.22;;;1.40;;
54823;SDS011;40724;53.196;5.980;2024-02-26T08:00:16;2.67;;;1.15;;
54823;SDS011;40724;53.196;5.980;2024-02-26T08:02:42;2.20;;;1.30;;
54823;SDS011;40724;53.196;5.980;2024-02-26T08:05:09;3.20;;;1.38;;
54823;SDS011;40724;53.196;5.980;2024-02-26T08:07:35;2.63;;;1.70;;
54823;SDS011;40724;53.196;5.980;2024-02-26T08:10:01;1.35;;;0.95;;
54823;SDS011;40724;53.196;5.980;2024-02-26T08:12:27;1.60;;;1.20;;
54823;SDS011;40724;53.196;5.980;2024-02-26T08:14:53;3.28;;;1.80;;
54823;SDS011;40724;53.196;5.980;2024-02-26T08:17:20;3.25;;;1.38;;
54823;SDS011;40724;53.196;5.980;2024-02-26T08:19:46;1.85;;;1.30;;
54823;SDS011;40724;53.196;5.980;2024-02-26T08:22:12;2.88;;;1.23;;
54823;SDS011;40724;53.196;5.980;2024-02-26T08:24:41;2.55;;;1.40;;
54823;SDS011;40724;53.196;5.980;2024-02-26T08:27:07;3.50;;;1.30;;
54823;SDS011;40724;53.196;5.980;2024-02-26T08:29:34;5.68;;;1.98;;
54823;SDS011;40724;53.196;5.980;2024-02-26T08:32:00;4.50;;;1.55;;
54823;SDS011;40724;53.196;5.980;2024-02-26T08:34:26;2.13;;;1.25;;
54823;SDS011;40724;53.196;5.980;2024-02-26T08:36:52;6.53;;;1.45;;
54823;SDS011;40724;53.196;5.980;2024-02-26T08:39:18;2.63;;;1.30;;
54823;SDS011;40724;53.196;5.980;2024-02-26T08:41:45;1.52;;;1.13;;
54823;SDS011;40724;53.196;5.980;2024-02-26T08:44:11;3.95;;;1.33;;
54823;SDS011;40724;53.196;5.980;2024-02-26T08:46:38;3.58;;;1.33;;
54823;SDS011;40724;53.196;5.980;2024-02-26T08:49:04;5.53;;;1.40;;
54823;SDS011;40724;53.196;5.980;2024-02-26T08:51:30;2.85;;;1.23;;
54823;SDS011;40724;53.196;5.980;2024-02-26T08:53:57;3.78;;;1.42;;
54823;SDS011;40724;53.196;5.980;2024-02-26T08:56:23;4.28;;;1.40;;
54823;SDS011;40724;53.196;5.980;2024-02-26T08:58:49;2.78;;;1.30;;
54823;SDS011;40724;53.196;5.980;2024-02-26T09:01:18;3.22;;;1.50;;
54823;SDS011;40724;53.196;5.980;2024-02-26T09:03:44;2.00;;;1.05;;
54823;SDS011;40724;53.196;5.980;2024-02-26T09:06:11;4.55;;;1.58;;
54823;SDS011;40724;53.196;5.980;2024-02-26T09:08:37;3.45;;;1.58;;
54823;SDS011;40724;53.196;5.980;2024-02-26T09:11:04;3.35;;;1.45;;
54823;SDS011;40724;53.196;5.980;2024-02-26T09:13:30;3.58;;;1.45;;
54823;SDS011;40724;53.196;5.980;2024-02-26T09:15:56;3.28;;;1.00;;
54823;SDS011;40724;53.196;5.980;2024-02-26T09:18:24;2.85;;;1.38;;
54823;SDS011;40724;53.196;5.980;2024-02-26T09:20:50;4.15;;;1.60;;
54823;SDS011;40724;53.196;5.980;2024-02-26T09:23:16;3.08;;;1.45;;
54823;SDS011;40724;53.196;5.980;2024-02-26T09:25:42;2.65;;;1.40;;
54823;SDS011;40724;53.196;5.980;2024-02-26T09:28:08;7.47;;;1.63;;
54823;SDS011;40724;53.196;5.980;2024-02-26T09:30:34;3.08;;;1.23;;
54823;SDS011;40724;53.196;5.980;2024-02-26T09:33:00;3.15;;;1.38;;
54823;SDS011;40724;53.196;5.980;2024-02-26T09:35:26;2.17;;;1.33;;
54823;SDS011;40724;53.196;5.980;2024-02-26T09:37:53;4.13;;;1.92;;
54823;SDS011;40724;53.196;5.980;2024-02-26T09:40:19;2.38;;;1.17;;
54823;SDS011;40724;53.196;5.980;2024-02-26T09:42:45;4.85;;;1.50;;
54823;SDS011;40724;53.196;5.980;2024-02-26T09:45:17;1.63;;;1.27;;
54823;SDS011;40724;53.196;5.980;2024-02-26T09:47:44;2.03;;;1.20;;
54823;SDS011;40724;53.196;5.980;2024-02-26T09:50:11;1.65;;;1.10;;
54823;SDS011;40724;53.196;5.980;2024-02-26T09:52:39;2.55;;;1.17;;
54823;SDS011;40724;53.196;5.980;2024-02-26T09:55:07;2.50;;;1.27;;
54823;SDS011;40724;53.196;5.980;2024-02-26T09:57:35;2.30;;;1.15;;
54823;SDS011;40724;53.196;5.980;2024-02-26T10:00:03;2.78;;;1.33;;
54823;SDS011;40724;53.196;5.980;2024-02-26T10:02:31;4.00;;;1.60;;
54823;SDS011;40724;53.196;5.980;2024-02-26T10:04:59;3.00;;;1.35;;
54823;SDS011;40724;53.196;5.980;2024-02-26T10:07:28;4.15;;;1.58;;
54823;SDS011;40724;53.196;5.980;2024-02-26T10:09:55;2.88;;;1.17;;
54823;SDS011;40724;53.196;5.980;2024-02-26T10:12:21;2.97;;;1.40;;
54823;SDS011;40724;53.196;5.980;2024-02-26T10:14:47;3.35;;;1.70;;
54823;SDS011;40724;53.196;5.980;2024-02-26T10:17:13;1.85;;;1.15;;
54823;SDS011;40724;53.196;5.980;2024-02-26T10:19:40;3.80;;;1.77;;
54823;SDS011;40724;53.196;5.980;2024-02-26T10:22:06;4.95;;;1.58;;
54823;SDS011;40724;53.196;5.980;2024-02-26T10:24:32;3.08;;;1.30;;
54823;SDS011;40724;53.196;5.980;2024-02-26T10:26:59;2.83;;;1.20;;
54823;SDS011;40724;53.196;5.980;2024-02-26T10:29:25;2.35;;;1.50;;
54823;SDS011;40724;53.196;5.980;2024-02-26T10:31:52;2.13;;;1.48;;
54823;SDS011;40724;53.196;5.980;2024-02-26T10:34:18;1.85;;;1.20;;
54823;SDS011;40724;53.196;5.980;2024-02-26T10:36:45;2.20;;;1.40;;
54823;SDS011;40724;53.196;5.980;2024-02-26T10:39:14;2.72;;;1.35;;
54823;SDS011;40724;53.196;5.980;2024-02-26T10:41:41;3.35;;;1.50;;
54823;SDS011;40724;53.196;5.980;2024-02-26T10:44:08;3.55;;;1.58;;
54823;SDS011;40724;53.196;5.980;2024-02-26T10:46:36;5.82;;;1.48;;
54823;SDS011;40724;53.196;5.980;2024-02-26T10:49:02;1.85;;;1.10;;
54823;SDS011;40724;53.196;5.980;2024-02-26T10:51:31;3.38;;;1.45;;
54823;SDS011;40724;53.196;5.980;2024-02-26T10:54:00;2.88;;;1.60;;
54823;SDS011;40724;53.196;5.980;2024-02-26T10:56:27;2.25;;;1.13;;
54823;SDS011;40724;53.196;5.980;2024-02-26T10:58:58;2.83;;;1.50;;
54823;SDS011;40724;53.196;5.980;2024-02-26T11:01:24;2.60;;;1.50;;
54823;SDS011;40724;53.196;5.980;2024-02-26T11:03:51;2.38;;;1.20;;
54823;SDS011;40724;53.196;5.980;2024-02-26T11:06:21;1.92;;;1.25;;
54823;SDS011;40724;53.196;5.980;2024-02-26T11:08:48;4.40;;;1.38;;
54823;SDS011;40724;53.196;5.980;2024-02-26T11:11:14;1.75;;;1.13;;
54823;SDS011;40724;53.196;5.980;2024-02-26T11:13:42;2.55;;;1.30;;
54823;SDS011;40724;53.196;5.980;2024-02-26T11:16:11;2.85;;;1.40;;
54823;SDS011;40724;53.196;5.980;2024-02-26T11:18:38;2.35;;;1.35;;
54823;SDS011;40724;53.196;5.980;2024-02-26T11:21:06;3.05;;;1.88;;
54823;SDS011;40724;53.196;5.980;2024-02-26T11:23:33;5.63;;;1.80;;
54823;SDS011;40724;53.196;5.980;2024-02-26T11:26:05;3.45;;;1.80;;
54823;SDS011;40724;53.196;5.980;2024-02-26T11:28:32;2.67;;;1.60;;
54823;SDS011;40724;53.196;5.980;2024-02-26T11:30:59;3.55;;;1.60;;
54823;SDS011;40724;53.196;5.980;2024-02-26T11:33:26;2.15;;;1.30;;
54823;SDS011;40724;53.196;5.980;2024-02-26T11:35:53;2.92;;;1.58;;
54823;SDS011;40724;53.196;5.980;2024-02-26T11:38:23;5.50;;;1.58;;
54823;SDS011;40724;53.196;5.980;2024-02-26T11:40:50;3.58;;;1.73;;
54823;SDS011;40724;53.196;5.980;2024-02-26T11:43:16;6.38;;;2.13;;
54823;SDS011;40724;53.196;5.980;2024-02-26T11:50:39;4.80;;;1.83;;
54823;SDS011;40724;53.196;5.980;2024-02-26T11:58:38;3.22;;;1.75;;
54823;SDS011;40724;53.196;5.980;2024-02-26T12:01:04;2.97;;;1.85;;
54823;SDS011;40724;53.196;5.980;2024-02-26T12:03:30;6.78;;;2.10;;
54823;SDS011;40724;53.196;5.980;2024-02-26T12:05:57;4.28;;;2.78;;
54823;SDS011;40724;53.196;5.980;2024-02-26T12:08:23;3.40;;;2.00;;
54823;SDS011;40724;53.196;5.980;2024-02-26T12:10:50;4.63;;;2.42;;
54823;SDS011;40724;53.196;5.980;2024-02-26T12:13:19;3.10;;;2.08;;
54823;SDS011;40724;53.196;5.980;2024-02-26T12:15:54;5.03;;;2.00;;
54823;SDS011;40724;53.196;5.980;2024-02-26T12:18:21;4.15;;;2.45;;
54823;SDS011;40724;53.196;5.980;2024-02-26T12:20:58;3.20;;;2.20;;
54823;SDS011;40724;53.196;5.980;2024-02-26T12:23:24;4.07;;;2.42;;
54823;SDS011;40724;53.196;5.980;2024-02-26T12:25:52;5.22;;;2.05;;
54823;SDS011;40724;53.196;5.980;2024-02-26T12:28:18;4.05;;;2.05;;
54823;SDS011;40724;53.196;5.980;2024-02-26T12:30:44;4.32;;;2.45;;
54823;SDS011;40724;53.196;5.980;2024-02-26T12:33:11;7.63;;;3.20;;
54823;SDS011;40724;53.196;5.980;2024-02-26T12:35:37;3.38;;;2.40;;
54823;SDS011;40724;53.196;5.980;2024-02-26T12:38:03;6.38;;;2.85;;
54823;SDS011;40724;53.196;5.980;2024-02-26T12:40:30;3.85;;;2.10;;
54823;SDS011;40724;53.196;5.980;2024-02-26T12:42:56;5.45;;;2.40;;
54823;SDS011;40724;53.196;5.980;2024-02-26T12:45:24;10.27;;;3.50;;
54823;SDS011;40724;53.196;5.980;2024-02-26T12:47:51;6.40;;;3.33;;
54823;SDS011;40724;53.196;5.980;2024-02-26T12:50:17;5.75;;;2.78;;
54823;SDS011;40724;53.196;5.980;2024-02-26T12:52:44;3.70;;;2.70;;
54823;SDS011;40724;53.196;5.980;2024-02-26T12:55:12;5.47;;;2.65;;
54823;SDS011;40724;53.196;5.980;2024-02-26T12:57:39;6.70;;;2.92;;
54823;SDS011;40724;53.196;5.980;2024-02-26T13:00:08;6.40;;;2.78;;
54823;SDS011;40724;53.196;5.980;2024-02-26T13:02:37;4.47;;;3.10;;
54823;SDS011;40724;53.196;5.980;2024-02-26T13:05:04;3.78;;;2.63;;
54823;SDS011;40724;53.196;5.980;2024-02-26T13:07:31;5.65;;;3.08;;
54823;SDS011;40724;53.196;5.980;2024-02-26T13:09:58;6.40;;;2.35;;
54823;SDS011;40724;53.196;5.980;2024-02-26T13:12:24;6.07;;;3.67;;
54823;SDS011;40724;53.196;5.980;2024-02-26T13:15:00;10.38;;;3.40;;
54823;SDS011;40724;53.196;5.980;2024-02-26T13:17:26;6.18;;;3.05;;
54823;SDS011;40724;53.196;5.980;2024-02-26T13:19:53;4.43;;;3.13;;
54823;SDS011;40724;53.196;5.980;2024-02-26T13:22:20;6.68;;;2.75;;
54823;SDS011;40724;53.196;5.980;2024-02-26T13:24:54;7.22;;;3.00;;
54823;SDS011;40724;53.196;5.980;2024-02-26T13:29:47;6.90;;;2.42;;
54823;SDS011;40724;53.196;5.980;2024-02-26T13:32:13;3.97;;;2.35;;
54823;SDS011;40724;53.196;5.980;2024-02-26T13:34:39;6.65;;;2.60;;
54823;SDS011;40724;53.196;5.980;2024-02-26T13:37:05;4.78;;;3.03;;
54823;SDS011;40724;53.196;5.980;2024-02-26T13:39:31;3.83;;;2.35;;
54823;SDS011;40724;53.196;5.980;2024-02-26T13:42:01;3.88;;;2.53;;
54823;SDS011;40724;53.196;5.980;2024-02-26T13:44:27;5.72;;;2.90;;
54823;SDS011;40724;53.196;5.980;2024-02-26T13:46:53;7.07;;;2.65;;
54823;SDS011;40724;53.196;5.980;2024-02-26T13:49:19;4.47;;;2.42;;
54823;SDS011;40724;53.196;5.980;2024-02-26T13:51:45;3.38;;;2.22;;
54823;SDS011;40724;53.196;5.980;2024-02-26T13:54:11;5.28;;;2.22;;
54823;SDS011;40724;53.196;5.980;2024-02-26T13:56:39;4.78;;;1.95;;
54823;SDS011;40724;53.196;5.980;2024-02-26T13:59:05;4.88;;;2.25;;
54823;SDS011;40724;53.196;5.980;2024-02-26T14:01:31;3.28;;;2.10;;
54823;SDS011;40724;53.196;5.980;2024-02-26T14:03:58;4.43;;;2.40;;
54823;SDS011;40724;53.196;5.980;2024-02-26T14:06:26;3.35;;;2.22;;
54823;SDS011;40724;53.196;5.980;2024-02-26T14:08:52;3.80;;;2.42;;
54823;SDS011;40724;53.196;5.980;2024-02-26T14:11:18;3.35;;;2.20;;
54823;SDS011;40724;53.196;5.980;2024-02-26T14:13:44;6.45;;;2.53;;
54823;SDS011;40724;53.196;5.980;2024-02-26T14:16:12;5.30;;;2.70;;
54823;SDS011;40724;53.196;5.980;2024-02-26T14:18:39;3.10;;;2.03;;
54823;SDS011;40724;53.196;5.980;2024-02-26T14:21:06;4.15;;;2.03;;
54823;SDS011;40724;53.196;5.980;2024-02-26T14:23:32;5.45;;;1.98;;
54823;SDS011;40724;53.196;5.980;2024-02-26T14:25:58;2.80;;;1.90;;
54823;SDS011;40724;53.196;5.980;2024-02-26T14:28:25;3.30;;;2.00;;
54823;SDS011;40724;53.196;5.980;2024-02-26T14:30:54;5.28;;;2.13;;
54823;SDS011;40724;53.196;5.980;2024-02-26T14:33:20;3.38;;;1.90;;
54823;SDS011;40724;53.196;5.980;2024-02-26T14:35:46;3.85;;;2.08;;
54823;SDS011;40724;53.196;5.980;2024-02-26T14:38:12;5.25;;;2.25;;
54823;SDS011;40724;53.196;5.980;2024-02-26T14:40:38;5.50;;;2.10;;
54823;SDS011;40724;53.196;5.980;2024-02-26T14:43:04;3.10;;;1.75;;
54823;SDS011;40724;53.196;5.980;2024-02-26T14:45:30;5.13;;;2.13;;
54823;SDS011;40724;53.196;5.980;2024-02-26T14:47:57;4.93;;;2.15;;
54823;SDS011;40724;53.196;5.980;2024-02-26T14:50:23;4.20;;;2.25;;
54823;SDS011;40724;53.196;5.980;2024-02-26T14:52:49;3.78;;;1.83;;
54823;SDS011;40724;53.196;5.980;2024-02-26T14:55:16;6.30;;;2.45;;
54823;SDS011;40724;53.196;5.980;2024-02-26T14:57:42;3.55;;;1.83;;